Time;durP1;ratioP1;P1;durP2;ratioP2;P2;SDS_P1;SDS_P2;PMS_P1;PMS_P2;Temp;Humidity;BMP_temperature;BMP_pressure;BME280_temperature;BME280_humidity;BME280_pressure;Samples;Min_cycle;Max_cycle;Signal;HPM_P1;HPM_P2
2023/05/14 00:02:15;;;;;;;45.80;25.90;;;22.90;55.10;;;;;;221862;1257;22769;-41
2023/05/14 00:07:20;;;;;;;46.50;26.10;;;22.90;54.90;;;;;;221624;1256;23986;-40
2023/05/14 00:12:28;;;;;;;48.20;25.40;;;22.90;54.90;;;;;;222026;1266;22512;-42
2023/05/14 00:17:33;;;;;;;46.30;25.60;;;22.90;55.00;;;;;;221759;1256;22539;-39
2023/05/14 00:22:38;;;;;;;47.60;25.60;;;22.80;55.10;;;;;;221914;1255;22677;-40
2023/05/14 00:27:42;;;;;;;40.80;24.10;;;22.80;55.20;;;;;;221892;1259;22758;-40
2023/05/14 00:32:46;;;;;;;44.40;24.40;;;22.70;55.10;;;;;;221774;1258;23947;-46
2023/05/14 00:37:50;;;;;;;45.40;23.90;;;22.70;55.30;;;;;;221823;1265;22690;-40
2023/05/14 00:42:55;;;;;;;39.70;23.30;;;22.70;55.50;;;;;;221913;1262;22683;-43
2023/05/14 00:47:59;;;;;;;38.80;22.50;;;22.70;55.50;;;;;;221833;1259;22627;-41
2023/05/14 00:53:08;;;;;;;39.70;22.20;;;22.70;55.00;;;;;;221790;1259;24190;-44
2023/05/14 00:58:13;;;;;;;41.80;22.60;;;22.70;55.50;;;;;;221877;1256;24218;-43
2023/05/14 01:03:19;;;;;;;38.20;21.70;;;22.60;55.70;;;;;;221825;1258;24369;-41
2023/05/14 01:08:40;;;;;;;34.40;20.00;;;22.60;55.60;;;;;;221744;1263;24375;-40
2023/05/14 01:14:06;;;;;;;38.40;20.10;;;22.60;55.70;;;;;;221918;1257;24318;-41
2023/05/14 01:19:26;;;;;;;34.70;19.90;;;22.60;55.70;;;;;;221863;1257;25344;-41
2023/05/14 01:24:30;;;;;;;30.90;19.70;;;22.60;55.60;;;;;;221894;1256;23534;-40
2023/05/14 01:29:37;;;;;;;32.10;20.10;;;22.60;55.60;;;;;;221408;1256;22517;-41
2023/05/14 01:34:46;;;;;;;30.10;18.90;;;22.70;55.60;;;;;;221754;1266;25379;-41
2023/05/14 01:39:51;;;;;;;32.60;18.70;;;22.60;55.50;;;;;;221519;1256;22516;-42
2023/05/14 01:44:55;;;;;;;26.00;18.20;;;22.60;55.50;;;;;;221624;1253;22635;-41
2023/05/14 01:49:59;;;;;;;28.40;17.70;;;22.60;55.50;;;;;;222034;1264;22723;-43
2023/05/14 01:55:05;;;;;;;29.00;18.80;;;22.60;55.90;;;;;;221886;1256;22518;-44
2023/05/14 02:00:10;;;;;;;31.30;18.90;;;22.60;55.60;;;;;;222093;1263;25385;-41
2023/05/14 02:05:17;;;;;;;29.80;18.50;;;22.50;55.70;;;;;;221842;1264;24212;-42
2023/05/14 02:10:22;;;;;;;26.00;17.20;;;22.50;55.80;;;;;;221561;1270;207279;-42
2023/05/14 02:15:27;;;;;;;25.90;18.20;;;22.50;55.60;;;;;;221796;1262;24369;-39
2023/05/14 02:20:31;;;;;;;29.60;17.10;;;22.50;55.60;;;;;;221700;1262;22517;-43
2023/05/14 02:25:36;;;;;;;22.90;17.20;;;22.50;55.60;;;;;;221809;1264;22507;-46
2023/05/14 02:30:40;;;;;;;25.40;17.00;;;22.60;55.60;;;;;;221728;1257;22533;-41
2023/05/14 02:35:44;;;;;;;24.50;15.70;;;22.50;55.90;;;;;;221821;1256;25527;-41
2023/05/14 02:40:49;;;;;;;25.30;15.70;;;22.50;55.60;;;;;;221898;1257;26666;-42
2023/05/14 02:45:53;;;;;;;27.50;16.30;;;22.50;55.70;;;;;;221886;1265;24046;-42
2023/05/14 02:50:57;;;;;;;21.70;15.40;;;22.50;55.70;;;;;;222074;1263;22521;-41
2023/05/14 02:56:01;;;;;;;24.20;15.20;;;22.50;55.70;;;;;;221843;1263;24179;-40
2023/05/14 03:01:06;;;;;;;24.20;15.50;;;22.50;55.70;;;;;;221732;1264;22760;-44
2023/05/14 03:06:10;;;;;;;24.40;15.50;;;22.40;55.70;;;;;;221813;1256;25272;-39
2023/05/14 03:11:14;;;;;;;22.80;14.20;;;22.40;55.70;;;;;;221817;1247;22580;-44
2023/05/14 03:16:18;;;;;;;23.00;15.00;;;22.40;55.70;;;;;;221811;1256;22627;-39
2023/05/14 03:21:23;;;;;;;19.00;13.60;;;22.40;55.80;;;;;;221730;1256;22507;-45
2023/05/14 03:26:27;;;;;;;20.80;14.00;;;22.40;55.70;;;;;;221835;1262;24056;-39
2023/05/14 03:31:32;;;;;;;20.50;13.10;;;22.40;55.80;;;;;;221996;1265;22643;-41
2023/05/14 03:36:37;;;;;;;22.30;13.70;;;22.40;55.60;;;;;;221718;1256;22514;-40
2023/05/14 03:41:42;;;;;;;16.10;12.60;;;22.40;55.60;;;;;;221811;1270;25386;-40
2023/05/14 03:46:46;;;;;;;18.50;12.80;;;22.40;55.50;;;;;;221862;1265;22533;-44
2023/05/14 03:51:51;;;;;;;18.20;13.20;;;22.40;55.90;;;;;;221762;1259;24507;-42
2023/05/14 03:56:55;;;;;;;17.90;12.70;;;22.40;56.40;;;;;;221840;1265;22534;-42
2023/05/14 04:01:59;;;;;;;19.30;12.60;;;22.40;55.70;;;;;;221688;1267;22508;-40
2023/05/14 04:07:04;;;;;;;17.10;11.80;;;22.30;55.70;;;;;;221646;1265;22521;-40
2023/05/14 04:12:08;;;;;;;18.80;12.90;;;22.30;56.30;;;;;;221807;1271;23876;-41
2023/05/14 04:17:13;;;;;;;15.60;11.20;;;22.30;56.00;;;;;;222030;1263;22609;-45
2023/05/14 04:22:17;;;;;;;18.90;12.20;;;22.30;56.00;;;;;;221647;1257;22619;-43
2023/05/14 04:27:21;;;;;;;17.30;11.80;;;22.30;55.90;;;;;;222075;1266;23917;-41
2023/05/14 04:32:25;;;;;;;14.50;10.20;;;22.30;55.90;;;;;;221607;1263;22511;-40
2023/05/14 04:37:30;;;;;;;16.30;11.00;;;22.30;55.90;;;;;;221810;1271;24363;-40
2023/05/14 04:42:34;;;;;;;13.00;11.00;;;22.30;55.80;;;;;;221678;1253;22647;-44
2023/05/14 04:47:38;;;;;;;15.40;11.20;;;22.30;55.90;;;;;;221768;1260;22588;-41
2023/05/14 04:52:43;;;;;;;16.30;11.10;;;22.30;55.90;;;;;;221784;1259;24884;-45
2023/05/14 04:57:48;;;;;;;16.00;11.50;;;22.30;55.90;;;;;;221823;1265;22515;-41
2023/05/14 05:02:52;;;;;;;17.90;11.00;;;22.30;55.80;;;;;;222089;1250;22507;-41
2023/05/14 05:07:56;;;;;;;13.20;10.80;;;22.30;56.00;;;;;;221891;1260;22616;-40
2023/05/14 05:13:00;;;;;;;15.90;10.80;;;22.30;55.70;;;;;;221727;1268;22613;-40
2023/05/14 05:18:05;;;;;;;14.70;10.00;;;22.30;55.80;;;;;;221731;1260;22723;-39
2023/05/14 05:23:09;;;;;;;13.20;10.40;;;22.20;55.80;;;;;;221795;1267;22517;-41
2023/05/14 05:28:13;;;;;;;14.50;10.40;;;22.30;56.40;;;;;;222000;1264;22771;-40
2023/05/14 05:33:18;;;;;;;16.50;10.20;;;22.30;55.90;;;;;;221761;1270;23908;-40
2023/05/14 05:38:22;;;;;;;12.10;9.70;;;22.30;55.80;;;;;;221927;1271;25457;-41
2023/05/14 05:43:27;;;;;;;11.90;9.80;;;22.30;55.80;;;;;;221835;1269;23879;-44
2023/05/14 05:48:31;;;;;;;11.00;9.70;;;22.30;55.80;;;;;;221771;1269;22530;-40
2023/05/14 05:53:35;;;;;;;10.40;9.30;;;22.30;56.10;;;;;;221744;1270;22764;-45
2023/05/14 05:58:39;;;;;;;14.80;10.20;;;22.30;55.60;;;;;;221654;1249;23893;-42
2023/05/14 06:03:43;;;;;;;13.10;9.70;;;22.30;55.40;;;;;;221903;1271;22518;-41
2023/05/14 06:08:51;;;;;;;11.30;9.20;;;22.40;55.80;;;;;;221642;1265;22570;-42
2023/05/14 06:13:55;;;;;;;11.50;9.10;;;22.30;55.40;;;;;;221674;1257;23879;-45
2023/05/14 06:18:59;;;;;;;12.60;8.80;;;22.40;55.50;;;;;;221768;1265;22626;-44
2023/05/14 06:24:04;;;;;;;16.10;9.40;;;22.40;55.90;;;;;;221880;1257;22528;-44
2023/05/14 06:29:08;;;;;;;14.30;8.60;;;22.40;55.40;;;;;;221853;1260;22590;-46
2023/05/14 06:34:12;;;;;;;10.70;8.70;;;22.40;55.50;;;;;;221753;1266;22626;-42
2023/05/14 06:39:16;;;;;;;11.60;8.60;;;22.50;55.50;;;;;;221878;1263;22504;-45
2023/05/14 06:44:20;;;;;;;9.70;8.40;;;22.50;55.50;;;;;;221585;1266;22622;-45
2023/05/14 06:49:25;;;;;;;8.60;7.60;;;22.50;55.90;;;;;;222066;1269;22524;-45
2023/05/14 06:54:29;;;;;;;10.90;8.10;;;22.50;55.90;;;;;;221699;1258;25473;-41
2023/05/14 06:59:34;;;;;;;10.40;8.10;;;22.50;55.40;;;;;;221770;1266;26545;-47
2023/05/14 07:04:38;;;;;;;9.80;7.70;;;22.60;55.40;;;;;;221851;1256;23892;-41
2023/05/14 07:09:43;;;;;;;9.00;7.90;;;22.70;55.30;;;;;;221653;1266;22531;-45
2023/05/14 07:14:47;;;;;;;9.20;8.20;;;22.70;55.30;;;;;;221803;1259;24052;-47
2023/05/14 07:19:51;;;;;;;10.30;7.60;;;22.70;55.10;;;;;;221645;1256;22643;-48
2023/05/14 07:24:55;;;;;;;9.80;7.30;;;22.60;55.50;;;;;;221962;1262;22507;-46
2023/05/14 07:29:59;;;;;;;9.40;7.30;;;22.60;55.50;;;;;;221810;1269;22516;-49
2023/05/14 07:35:05;;;;;;;9.80;7.40;;;22.60;55.40;;;;;;221729;1269;24167;-48
2023/05/14 07:40:09;;;;;;;6.70;6.00;;;22.60;55.50;;;;;;222095;1256;23924;-47
2023/05/14 07:45:14;;;;;;;9.20;7.90;;;22.60;55.50;;;;;;221719;1263;26632;-47
2023/05/14 07:50:18;;;;;;;7.90;7.00;;;22.50;55.50;;;;;;221660;1266;22512;-47
2023/05/14 07:55:22;;;;;;;8.10;7.20;;;22.50;55.50;;;;;;221438;1264;22646;-52
2023/05/14 08:00:26;;;;;;;7.60;6.60;;;22.60;55.50;;;;;;221451;1266;23910;-52
2023/05/14 08:05:31;;;;;;;10.10;8.00;;;22.60;55.30;;;;;;221634;1271;22509;-48
2023/05/14 08:10:35;;;;;;;23.60;6.90;;;22.60;55.40;;;;;;221644;1259;25597;-50
2023/05/14 08:15:40;;;;;;;8.40;7.30;;;22.60;55.20;;;;;;221375;1272;25387;-54
2023/05/14 08:20:44;;;;;;;7.90;6.90;;;22.70;54.90;;;;;;221715;1266;22511;-47
2023/05/14 08:25:48;;;;;;;11.10;6.40;;;22.70;56.20;;;;;;221558;1267;22594;-49
2023/05/14 08:30:52;;;;;;;10.80;6.40;;;22.70;56.20;;;;;;221544;1266;22511;-47
2023/05/14 08:35:59;;;;;;;51.50;25.20;;;22.80;56.60;;;;;;221412;1257;22593;-46
2023/05/14 08:41:05;;;;;;;118.60;53.70;;;22.90;56.00;;;;;;221584;1266;25461;-48
2023/05/14 08:46:12;;;;;;;111.80;50.00;;;23.00;56.30;;;;;;221850;1266;24281;-51
2023/05/14 08:51:20;;;;;;;179.50;83.20;;;23.10;56.50;;;;;;221808;1268;22525;-47
2023/05/14 08:56:33;;;;;;;148.40;69.60;;;23.00;56.80;;;;;;221612;1266;22768;-51
2023/05/14 09:01:46;;;;;;;132.60;63.40;;;22.90;57.30;;;;;;221565;1259;24320;-52
2023/05/14 09:06:54;;;;;;;134.30;60.70;;;22.90;59.50;;;;;;221334;1268;22516;-47
2023/05/14 09:12:00;;;;;;;120.40;55.70;;;23.10;62.60;;;;;;221584;1253;24238;-52
2023/05/14 09:17:04;;;;;;;123.00;55.10;;;23.20;60.00;;;;;;221648;1259;22520;-48
2023/05/14 09:22:11;;;;;;;99.70;51.20;;;23.20;59.70;;;;;;221544;1266;22511;-49
2023/05/14 09:27:21;;;;;;;108.10;52.50;;;23.30;59.20;;;;;;221639;1267;22531;-47
2023/05/14 09:32:26;;;;;;;109.40;54.90;;;23.30;58.70;;;;;;221492;1265;22770;-51
2023/05/14 09:37:35;;;;;;;103.70;52.10;;;23.30;58.60;;;;;;221307;1259;24346;-49
2023/05/14 09:42:40;;;;;;;100.20;47.80;;;23.30;58.70;;;;;;221668;1259;24242;-48
2023/05/14 09:47:44;;;;;;;97.70;50.70;;;23.30;58.30;;;;;;221500;1266;22521;-55
2023/05/14 09:52:49;;;;;;;88.20;45.50;;;23.20;58.50;;;;;;221713;1256;24233;-49
2023/05/14 09:57:53;;;;;;;88.10;46.70;;;23.10;58.10;;;;;;221626;1263;24368;-49
2023/05/14 10:02:58;;;;;;;85.50;44.20;;;23.20;57.90;;;;;;221657;1260;22791;-49
2023/05/14 10:08:13;;;;;;;83.50;41.10;;;23.30;57.50;;;;;;221877;1264;26629;-51
2023/05/14 10:13:21;;;;;;;75.60;40.50;;;23.30;57.20;;;;;;221714;1268;22525;-50
2023/05/14 10:18:29;;;;;;;74.50;37.00;;;23.30;57.50;;;;;;221736;1257;22602;-52
2023/05/14 10:23:36;;;;;;;72.10;34.80;;;23.30;57.30;;;;;;221908;1250;24221;-45
2023/05/14 10:28:41;;;;;;;68.30;35.80;;;23.30;56.80;;;;;;221888;1260;22537;-46
2023/05/14 10:33:50;;;;;;;77.00;36.30;;;23.30;57.20;;;;;;221582;1257;22643;-47
2023/05/14 10:38:57;;;;;;;62.60;33.90;;;23.30;57.30;;;;;;221937;1264;22514;-48
2023/05/14 10:44:09;;;;;;;62.80;31.10;;;23.40;56.50;;;;;;221800;1260;22721;-46
2023/05/14 10:49:13;;;;;;;50.60;29.50;;;23.30;56.30;;;;;;221850;1267;22572;-46
2023/05/14 10:54:18;;;;;;;54.40;29.50;;;23.30;56.30;;;;;;221841;1266;22658;-44
2023/05/14 10:59:27;;;;;;;53.30;30.10;;;23.30;56.10;;;;;;222055;1256;22645;-46
2023/05/14 11:04:31;;;;;;;58.80;28.80;;;23.30;56.20;;;;;;222082;1263;25341;-44
2023/05/14 11:09:37;;;;;;;47.50;25.80;;;23.40;56.00;;;;;;222014;1267;24048;-49
2023/05/14 11:14:41;;;;;;;41.80;23.70;;;23.40;55.80;;;;;;221858;1264;24185;-47
2023/05/14 11:19:45;;;;;;;47.70;23.70;;;23.50;55.50;;;;;;221925;1263;22736;-50
2023/05/14 11:24:52;;;;;;;38.80;20.90;;;23.50;55.10;;;;;;221631;1260;22561;-47
2023/05/14 11:29:56;;;;;;;35.40;20.10;;;23.50;55.10;;;;;;221792;1262;25340;-47
2023/05/14 11:35:01;;;;;;;36.20;21.60;;;23.60;55.10;;;;;;221863;1256;25281;-46
2023/05/14 11:40:11;;;;;;;35.80;20.30;;;23.60;57.40;;;;;;221598;1261;24367;-46
2023/05/14 11:45:25;;;;;;;33.10;18.80;;;23.70;56.60;;;;;;221586;1258;22664;-50
2023/05/14 11:50:35;;;;;;;31.70;18.40;;;23.80;55.60;;;;;;221690;1256;22517;-46
2023/05/14 11:55:39;;;;;;;35.30;16.90;;;23.90;56.40;;;;;;221538;1257;22515;-44
2023/05/14 12:00:44;;;;;;;37.30;17.50;;;23.90;56.00;;;;;;221496;1266;22669;-46
2023/05/14 12:06:00;;;;;;;32.70;19.20;;;24.00;55.50;;;;;;221616;1265;22518;-50
2023/05/14 12:11:04;;;;;;;32.70;15.90;;;24.00;55.60;;;;;;221768;1267;22629;-45
2023/05/14 12:16:08;;;;;;;31.80;15.50;;;24.00;55.80;;;;;;221907;1266;22590;-49
2023/05/14 12:21:12;;;;;;;33.50;15.10;;;24.10;55.50;;;;;;221646;1263;22518;-49
2023/05/14 12:26:16;;;;;;;38.30;14.50;;;24.10;55.20;;;;;;221719;1266;25376;-46
2023/05/14 12:31:32;;;;;;;29.70;14.80;;;24.10;55.10;;;;;;221614;1270;22609;-47
2023/05/14 12:36:36;;;;;;;22.80;13.30;;;24.10;54.90;;;;;;221798;1264;25265;-44
2023/05/14 12:41:40;;;;;;;25.90;12.80;;;24.10;54.70;;;;;;221576;1263;22598;-45
2023/05/14 12:46:44;;;;;;;25.30;12.20;;;24.10;55.10;;;;;;227588;1264;23581;-45
2023/05/14 12:51:48;;;;;;;20.20;11.60;;;24.10;54.70;;;;;;221828;1263;22521;-48
2023/05/14 12:57:03;;;;;;;19.40;12.20;;;24.10;54.50;;;;;;221743;1271;25520;-45
2023/05/14 13:02:07;;;;;;;27.60;12.20;;;24.10;54.00;;;;;;221629;1260;23925;-46
2023/05/14 13:07:12;;;;;;;17.80;10.60;;;24.10;54.20;;;;;;221839;1263;23964;-45
2023/05/14 13:12:16;;;;;;;18.30;11.20;;;24.10;53.90;;;;;;221755;1264;22514;-44
2023/05/14 13:17:20;;;;;;;21.80;11.50;;;24.00;54.30;;;;;;221757;1257;22560;-46
2023/05/14 13:22:24;;;;;;;17.70;10.60;;;24.00;54.40;;;;;;221924;1264;22529;-45
2023/05/14 13:27:29;;;;;;;27.90;11.20;;;24.10;53.90;;;;;;221835;1267;22538;-44
2023/05/14 13:32:33;;;;;;;21.40;10.10;;;24.00;54.50;;;;;;228546;1264;22522;-48
2023/05/14 13:37:38;;;;;;;23.40;10.90;;;24.00;55.30;;;;;;222179;1264;24391;-46
2023/05/14 13:42:42;;;;;;;27.10;10.50;;;24.10;54.20;;;;;;229635;1266;22345;-47
2023/05/14 13:47:46;;;;;;;19.30;9.70;;;24.20;53.50;;;;;;224342;1256;25475;-49
2023/05/14 13:52:51;;;;;;;16.70;9.40;;;24.20;54.00;;;;;;221597;1262;25227;-46
2023/05/14 13:57:56;;;;;;;21.90;9.30;;;24.20;53.80;;;;;;221698;1263;22584;-50
2023/05/14 14:03:00;;;;;;;11.90;8.40;;;24.10;54.00;;;;;;221627;1260;24182;-46
2023/05/14 14:08:04;;;;;;;22.80;8.20;;;24.10;53.90;;;;;;221910;1257;22661;-48
2023/05/14 14:13:26;;;;;;;26.20;8.40;;;24.10;53.70;;;;;;221613;1247;194526;-46
2023/05/14 14:18:31;;;;;;;17.00;8.10;;;24.10;53.70;;;;;;221656;1257;25315;-47
2023/05/14 14:23:35;;;;;;;16.00;8.00;;;24.10;53.10;;;;;;221636;1264;25459;-44
2023/05/14 14:28:39;;;;;;;13.20;7.90;;;24.20;53.50;;;;;;221710;1263;22669;-49
2023/05/14 14:33:43;;;;;;;11.40;7.30;;;24.20;53.20;;;;;;221611;1251;24241;-43
2023/05/14 14:38:47;;;;;;;16.10;7.10;;;24.20;53.50;;;;;;221651;1263;25272;-50
2023/05/14 14:43:51;;;;;;;16.10;8.40;;;24.10;53.40;;;;;;221785;1264;24362;-52
2023/05/14 14:48:55;;;;;;;14.30;7.90;;;24.20;53.60;;;;;;221682;1261;22528;-53
2023/05/14 14:53:59;;;;;;;14.40;6.60;;;24.10;55.30;;;;;;221603;1267;22600;-53
2023/05/14 14:59:03;;;;;;;13.80;7.00;;;24.20;54.80;;;;;;221664;1264;22619;-56
2023/05/14 15:04:07;;;;;;;15.70;7.30;;;24.10;54.50;;;;;;221710;1259;22508;-55
2023/05/14 15:09:11;;;;;;;13.70;6.20;;;23.90;49.70;;;;;;221710;1264;22528;-49
2023/05/14 15:14:15;;;;;;;7.00;4.80;;;23.40;46.50;;;;;;221703;1264;22769;-52
2023/05/14 15:19:20;;;;;;;8.50;5.10;;;23.40;46.80;;;;;;221659;1257;24237;-48
2023/05/14 15:24:25;;;;;;;10.50;4.70;;;23.60;48.70;;;;;;221769;1264;22532;-50
2023/05/14 15:29:29;;;;;;;7.10;4.90;;;23.90;47.90;;;;;;221959;1257;25242;-48
2023/05/14 15:34:33;;;;;;;7.00;4.50;;;23.90;48.20;;;;;;221803;1257;22521;-52
2023/05/14 15:39:37;;;;;;;7.90;5.00;;;23.90;48.30;;;;;;221785;1264;23993;-51
2023/05/14 15:44:41;;;;;;;10.20;4.80;;;24.00;48.00;;;;;;221709;1248;24219;-50
2023/05/14 15:49:46;;;;;;;6.60;4.80;;;24.00;48.00;;;;;;221537;1258;22752;-52
2023/05/14 15:54:50;;;;;;;10.00;4.70;;;23.70;47.00;;;;;;221495;1263;24222;-57
2023/05/14 15:59:55;;;;;;;7.00;4.90;;;23.60;45.10;;;;;;221546;1260;24327;-54
2023/05/14 16:05:00;;;;;;;4.70;4.20;;;23.30;45.10;;;;;;221703;1257;22641;-54
2023/05/14 16:10:05;;;;;;;7.30;5.00;;;23.40;46.10;;;;;;221784;1256;22521;-53
2023/05/14 16:15:10;;;;;;;12.60;4.50;;;23.50;46.40;;;;;;221619;1257;22521;-52
2023/05/14 16:20:14;;;;;;;9.40;4.90;;;23.70;46.80;;;;;;221681;1257;22517;-52
2023/05/14 16:25:18;;;;;;;6.30;5.10;;;23.80;47.00;;;;;;221607;1257;22514;-52
2023/05/14 16:30:23;;;;;;;7.20;4.30;;;23.90;47.40;;;;;;221610;1256;24049;-50
2023/05/14 16:35:29;;;;;;;5.20;4.20;;;23.80;47.90;;;;;;220522;1263;25319;-55
2023/05/14 16:40:33;;;;;;;5.20;4.30;;;23.80;48.10;;;;;;220778;1264;22520;-56
2023/05/14 16:45:39;;;;;;;4.90;4.40;;;23.70;48.70;;;;;;220382;1267;23595;-52
2023/05/14 16:50:43;;;;;;;12.80;4.50;;;23.90;48.20;;;;;;220829;1254;22528;-56
2023/05/14 16:55:47;;;;;;;10.00;5.30;;;23.80;49.40;;;;;;221750;1256;22529;-47
2023/05/14 17:00:51;;;;;;;7.30;4.50;;;23.90;50.00;;;;;;221818;1265;22627;-59
2023/05/14 17:05:56;;;;;;;18.30;5.00;;;23.80;50.20;;;;;;221824;1259;25627;-44
2023/05/14 17:11:04;;;;;;;12.10;4.90;;;23.80;50.90;;;;;;221754;1270;22576;-47
2023/05/14 17:16:07;;;;;;;15.90;5.00;;;23.70;50.40;;;;;;221874;1247;25501;-40
2023/05/14 17:21:11;;;;;;;5.40;4.30;;;23.70;50.40;;;;;;221917;1267;22525;-42
2023/05/14 17:26:16;;;;;;;13.40;5.20;;;23.80;50.90;;;;;;222001;1257;22525;-43
2023/05/14 17:31:21;;;;;;;8.10;4.90;;;23.80;50.40;;;;;;221927;1263;22838;-48
2023/05/14 17:36:27;;;;;;;10.30;4.30;;;23.80;50.50;;;;;;221961;1260;23789;-42
2023/05/14 17:41:31;;;;;;;10.30;4.80;;;23.70;50.40;;;;;;220790;1270;22643;-47
2023/05/14 17:46:35;;;;;;;10.00;4.90;;;23.70;50.50;;;;;;220844;1264;22520;-45
2023/05/14 17:51:40;;;;;;;7.90;4.80;;;23.70;50.70;;;;;;220653;1267;22651;-46
2023/05/14 17:56:46;;;;;;;8.10;5.40;;;23.70;52.20;;;;;;220775;1264;22936;-46
2023/05/14 18:01:51;;;;;;;9.90;5.30;;;23.80;52.10;;;;;;221100;1270;24206;-49
2023/05/14 18:06:56;;;;;;;14.10;5.30;;;23.80;51.80;;;;;;221796;1265;22542;-46
2023/05/14 18:12:00;;;;;;;8.90;5.10;;;23.80;51.90;;;;;;221832;1256;22888;-45
2023/05/14 18:17:06;;;;;;;7.00;4.70;;;23.80;54.30;;;;;;221872;1264;24327;-50
2023/05/14 18:22:11;;;;;;;7.00;4.90;;;23.90;53.10;;;;;;221898;1266;23148;-45
2023/05/14 18:27:15;;;;;;;19.80;5.00;;;23.80;53.40;;;;;;221625;1256;22644;-44
2023/05/14 18:32:20;;;;;;;7.80;5.20;;;23.90;53.20;;;;;;221696;1265;22517;-48
2023/05/14 18:37:24;;;;;;;5.00;4.40;;;23.90;53.10;;;;;;221892;1266;24374;-43
2023/05/14 18:42:30;;;;;;;13.80;5.30;;;23.90;52.80;;;;;;221796;1256;24229;-50
2023/05/14 18:47:35;;;;;;;8.40;4.40;;;23.90;53.10;;;;;;221870;1264;25476;-45
2023/05/14 18:52:40;;;;;;;7.30;4.60;;;23.90;52.60;;;;;;221925;1266;25230;-45
2023/05/14 18:57:45;;;;;;;7.20;4.20;;;24.00;52.90;;;;;;221861;1265;22623;-47
2023/05/14 19:02:51;;;;;;;6.70;4.70;;;24.00;52.80;;;;;;221848;1263;23965;-44
2023/05/14 19:07:57;;;;;;;7.30;4.60;;;24.00;52.70;;;;;;222229;1263;24193;-44
2023/05/14 19:13:02;;;;;;;8.00;4.10;;;23.90;52.90;;;;;;221816;1271;25231;-45
2023/05/14 19:18:07;;;;;;;11.80;4.50;;;23.90;52.80;;;;;;221921;1256;25227;-44
2023/05/14 19:23:12;;;;;;;11.80;4.30;;;23.90;53.10;;;;;;221880;1265;24314;-46
2023/05/14 19:28:18;;;;;;;8.10;4.50;;;23.90;53.70;;;;;;222045;1259;26628;-47
2023/05/14 19:33:24;;;;;;;17.30;5.50;;;23.80;53.20;;;;;;221912;1259;24172;-46
2023/05/14 19:38:31;;;;;;;8.60;4.30;;;23.90;57.30;;;;;;221857;1250;22544;-45
2023/05/14 19:43:37;;;;;;;10.70;4.70;;;24.00;55.10;;;;;;222066;1259;25275;-47
2023/05/14 19:48:41;;;;;;;12.80;4.80;;;23.80;54.50;;;;;;221907;1259;24203;-45
2023/05/14 19:53:46;;;;;;;9.20;4.90;;;23.80;55.10;;;;;;221835;1256;25390;-45
2023/05/14 19:58:51;;;;;;;13.00;4.60;;;23.80;54.70;;;;;;221861;1265;22649;-43
2023/05/14 20:03:56;;;;;;;8.50;5.60;;;23.80;54.90;;;;;;221674;1264;22927;-45
2023/05/14 20:09:00;;;;;;;4.80;4.00;;;23.70;54.30;;;;;;221806;1260;25558;-44
2023/05/14 20:14:05;;;;;;;10.60;4.10;;;23.70;53.80;;;;;;221810;1264;24215;-44
2023/05/14 20:19:09;;;;;;;5.50;4.50;;;23.70;54.00;;;;;;221820;1266;25319;-45
2023/05/14 20:24:14;;;;;;;13.20;4.30;;;23.60;54.10;;;;;;221856;1267;24292;-46
2023/05/14 20:29:19;;;;;;;8.60;4.50;;;23.60;54.30;;;;;;221913;1264;22746;-45
2023/05/14 20:34:23;;;;;;;5.00;4.50;;;23.70;54.70;;;;;;221961;1258;22518;-43
2023/05/14 20:39:27;;;;;;;6.70;3.80;;;23.70;54.00;;;;;;221741;1259;24256;-42
2023/05/14 20:44:33;;;;;;;5.60;4.10;;;23.60;54.40;;;;;;221921;1256;22632;-47
2023/05/14 20:49:37;;;;;;;12.70;5.00;;;23.60;55.40;;;;;;221845;1267;23538;-49
2023/05/14 20:54:42;;;;;;;7.60;4.60;;;23.60;58.80;;;;;;221748;1258;22730;-45
2023/05/14 20:59:46;;;;;;;7.60;4.50;;;23.60;58.00;;;;;;221768;1266;25340;-50
2023/05/14 21:04:51;;;;;;;8.00;4.50;;;23.60;57.40;;;;;;221862;1256;22504;-45
2023/05/14 21:09:54;;;;;;;11.80;5.50;;;23.60;56.90;;;;;;221754;1263;24376;-52
2023/05/14 21:14:59;;;;;;;14.20;5.10;;;23.70;58.30;;;;;;221797;1263;25600;-52
2023/05/14 21:20:03;;;;;;;8.10;4.40;;;23.70;59.30;;;;;;221795;1255;22507;-49
2023/05/14 21:25:08;;;;;;;6.80;4.60;;;23.70;59.00;;;;;;221931;1256;24183;-50
2023/05/14 21:30:12;;;;;;;6.90;4.50;;;23.70;58.50;;;;;;222035;1264;22542;-49
2023/05/14 21:35:17;;;;;;;8.10;4.50;;;23.70;58.70;;;;;;222090;1257;24371;-52
2023/05/14 21:40:21;;;;;;;19.30;5.40;;;23.70;58.40;;;;;;221831;1256;25211;-49
2023/05/14 21:45:26;;;;;;;10.40;5.60;;;23.60;58.90;;;;;;221869;1259;22530;-49
2023/05/14 21:50:31;;;;;;;7.10;4.10;;;23.60;58.60;;;;;;221933;1256;24167;-50
2023/05/14 21:55:35;;;;;;;5.90;4.60;;;23.60;58.50;;;;;;221814;1256;24340;-47
2023/05/14 22:00:39;;;;;;;8.40;4.40;;;23.70;58.30;;;;;;221721;1263;22524;-47
2023/05/14 22:05:43;;;;;;;4.50;4.10;;;23.60;58.30;;;;;;221782;1264;24240;-46
2023/05/14 22:10:47;;;;;;;6.40;4.20;;;23.50;58.50;;;;;;221850;1256;24327;-48
2023/05/14 22:15:51;;;;;;;6.30;4.10;;;23.40;58.60;;;;;;221930;1265;23010;-52
2023/05/14 22:21:11;;;;;;;5.40;3.90;;;23.50;58.50;;;;;;221873;1259;24205;-40
2023/05/14 22:26:16;;;;;;;5.70;4.10;;;23.60;58.30;;;;;;221837;1256;22736;-42
2023/05/14 22:31:20;;;;;;;7.30;4.20;;;23.60;58.30;;;;;;221751;1256;22636;-40
2023/05/14 22:36:24;;;;;;;5.70;4.10;;;23.60;58.00;;;;;;221604;1261;22515;-40
2023/05/14 22:41:29;;;;;;;7.00;4.00;;;23.50;58.10;;;;;;221626;1256;25471;-41
2023/05/14 22:46:34;;;;;;;5.40;4.30;;;23.50;57.90;;;;;;221890;1265;22565;-46
2023/05/14 22:51:39;;;;;;;5.70;3.70;;;23.50;57.60;;;;;;221757;1266;22650;-42
2023/05/14 22:56:43;;;;;;;8.10;4.10;;;23.50;57.80;;;;;;221784;1263;22514;-41
2023/05/14 23:01:47;;;;;;;4.50;4.00;;;23.40;57.30;;;;;;222714;1256;22532;-39
2023/05/14 23:06:51;;;;;;;4.10;3.70;;;23.50;57.90;;;;;;221655;1259;22553;-41
2023/05/14 23:11:55;;;;;;;5.90;4.00;;;23.40;57.60;;;;;;221847;1256;25269;-43
2023/05/14 23:16:59;;;;;;;4.20;3.70;;;23.40;57.60;;;;;;221899;1256;22785;-42
2023/05/14 23:22:04;;;;;;;5.10;3.60;;;23.40;57.30;;;;;;221639;1256;22605;-39
2023/05/14 23:27:09;;;;;;;5.50;3.40;;;23.40;57.50;;;;;;221850;1259;23136;-42
2023/05/14 23:32:13;;;;;;;6.00;3.70;;;23.40;57.60;;;;;;221741;1263;25259;-40
2023/05/14 23:37:18;;;;;;;5.00;3.40;;;23.40;57.70;;;;;;221786;1266;22530;-41
2023/05/14 23:42:23;;;;;;;3.90;3.50;;;23.40;57.50;;;;;;221895;1257;22639;-41
2023/05/14 23:47:27;;;;;;;5.10;3.70;;;23.40;57.50;;;;;;221684;1256;24253;-43
2023/05/14 23:52:32;;;;;;;4.80;4.00;;;23.40;57.50;;;;;;221750;1263;23948;-41
2023/05/14 23:57:36;;;;;;;4.70;4.30;;;23.40;57.60;;;;;;221820;1264;25275;-40
